Time;durP1;ratioP1;P1;durP2;ratioP2;P2;SDS_P1;SDS_P2;PMS_P1;PMS_P2;Temp;Humidity;BMP_temperature;BMP_pressure;BME280_temperature;BME280_humidity;BME280_pressure;Samples;Min_cycle;Max_cycle;Signal;HPM_P1;HPM_P2
2022/05/24 00:00:54;;;;;;;;;2.25;1.75;;;;;-142.59;100.00;56100.38;5033587;28;52478;-70
2022/05/24 00:03:20;;;;;;;;;3.00;3.00;;;;;-142.59;100.00;56100.38;5033803;28;49814;-69
2022/05/24 00:05:45;;;;;;;;;3.25;3.25;;;;;-142.59;100.00;56100.38;5033401;28;49796;-71
2022/05/24 00:08:11;;;;;;;;;3.00;3.00;;;;;-142.59;100.00;56100.38;5033750;28;49635;-70
2022/05/24 00:10:36;;;;;;;;;2.00;2.00;;;;;-142.59;100.00;56100.38;5016115;28;51743;-69
2022/05/24 00:13:02;;;;;;;;;3.00;3.00;;;;;-142.59;100.00;56100.38;5033561;28;49852;-69
2022/05/24 00:15:30;;;;;;;;;3.75;3.00;;;;;-142.59;100.00;56100.38;5033776;28;49609;-69
2022/05/24 00:17:58;;;;;;;;;3.75;3.00;;;;;-142.59;100.00;56100.38;5033559;28;49887;-69
2022/05/24 00:20:27;;;;;;;;;2.00;2.00;;;;;-142.59;100.00;56100.38;5015490;28;50746;-69
2022/05/24 00:22:53;;;;;;;;;2.00;2.00;;;;;-142.59;100.00;56100.38;5033398;28;49780;-69
2022/05/24 00:25:19;;;;;;;;;1.75;1.75;;;;;-142.59;100.00;56100.38;5033340;28;49745;-69
2022/05/24 00:27:46;;;;;;;;;3.00;3.00;;;;;-142.59;100.00;56100.38;5033735;28;49786;-69
2022/05/24 00:30:12;;;;;;;;;2.00;2.00;;;;;-142.59;100.00;56100.38;5033392;28;49542;-69
2022/05/24 00:32:38;;;;;;;;;2.75;1.75;;;;;-142.59;100.00;56100.38;5033007;28;49641;-69
2022/05/24 00:35:03;;;;;;;;;1.75;1.75;;;;;-142.59;100.00;56100.38;5033214;28;49713;-70
2022/05/24 00:37:29;;;;;;;;;1.00;1.00;;;;;-142.59;100.00;56100.38;5033111;28;49802;-69
2022/05/24 00:39:54;;;;;;;;;3.25;2.25;;;;;-142.59;100.00;56100.38;5032912;28;50588;-69
2022/05/24 00:42:25;;;;;;;;;2.75;2.25;;;;;-142.59;100.00;56100.38;5033313;28;49729;-70
2022/05/24 00:45:18;;;;;;;;;2.00;1.50;;;;;-142.59;100.00;56100.38;5033068;28;49782;-70
2022/05/24 00:47:54;;;;;;;;;2.50;2.00;;;;;-142.59;100.00;56100.38;5033047;28;49693;-69
2022/05/24 00:50:31;;;;;;;;;2.50;2.00;;;;;-142.59;100.00;56100.38;5032850;28;49796;-69
2022/05/24 00:53:21;;;;;;;;;4.25;3.25;;;;;-142.59;100.00;56100.38;5028049;28;50342;-70
2022/05/24 00:55:54;;;;;;;;;2.00;2.00;;;;;-142.59;100.00;56100.38;5023077;28;49817;-70
2022/05/24 00:58:37;;;;;;;;;2.50;2.00;;;;;-142.59;100.00;56100.38;5033009;28;49835;-70
2022/05/24 01:01:19;;;;;;;;;1.75;1.75;;;;;-142.59;100.00;56100.38;5032723;28;49697;-70
2022/05/24 01:03:44;;;;;;;;;2.50;2.50;;;;;-142.59;100.00;56100.38;5032856;28;49687;-69
2022/05/24 01:06:09;;;;;;;;;2.25;2.25;;;;;-142.59;100.00;56100.38;5031311;28;49547;-70
2022/05/24 01:08:35;;;;;;;;;3.50;2.50;;;;;-142.59;100.00;56100.38;5032768;28;49858;-69
2022/05/24 01:11:02;;;;;;;;;2.00;2.00;;;;;-142.59;100.00;56100.38;5032672;28;50576;-69
2022/05/24 01:13:30;;;;;;;;;2.00;1.00;;;;;-142.59;100.00;56100.38;5032835;28;49900;-69
2022/05/24 01:15:56;;;;;;;;;2.00;2.00;;;;;-142.59;100.00;56100.38;5032772;28;49766;-69
2022/05/24 01:18:24;;;;;;;;;1.00;1.00;;;;;-142.59;100.00;56100.38;5032762;28;49662;-70
2022/05/24 01:21:00;;;;;;;;;2.75;2.75;;;;;-142.59;100.00;56100.38;5032243;28;51515;-69
2022/05/24 01:23:53;;;;;;;;;4.00;3.00;;;;;-142.59;100.00;56100.38;5032512;28;49730;-69
2022/05/24 01:26:18;;;;;;;;;1.50;1.50;;;;;-142.59;100.00;56100.38;5032581;28;49919;-69
2022/05/24 01:28:54;;;;;;;;;4.50;2.00;;;;;-142.59;100.00;56100.38;5032771;28;49654;-69
2022/05/24 01:31:21;;;;;;;;;2.75;1.50;;;;;-142.59;100.00;56100.38;5032318;28;50515;-69
2022/05/24 01:36:35;;;;;;;;;2.50;1.50;;;;;-142.59;100.00;56100.38;5032258;28;49748;-70
2022/05/24 01:39:04;;;;;;;;;1.75;1.75;;;;;-142.59;100.00;56100.38;5032341;28;49860;-71
2022/05/24 01:41:44;;;;;;;;;1.75;1.75;;;;;-142.59;100.00;56100.38;5032391;28;49878;-71
2022/05/24 01:44:12;;;;;;;;;1.25;1.25;;;;;-142.59;100.00;56100.38;5032418;28;49607;-70
2022/05/24 01:46:42;;;;;;;;;1.00;1.00;;;;;-142.59;100.00;56100.38;5032213;28;49849;-70
2022/05/24 01:49:13;;;;;;;;;1.50;1.50;;;;;-142.59;100.00;56100.38;5032498;28;49788;-70
2022/05/24 01:51:45;;;;;;;;;2.00;2.00;;;;;-142.59;100.00;56100.38;5031877;28;50534;-70
2022/05/24 01:54:13;;;;;;;;;2.00;2.00;;;;;-142.59;100.00;56100.38;5032081;28;49744;-70
2022/05/24 01:56:57;;;;;;;;;1.00;0.75;;;;;-142.59;100.00;56100.38;5032246;28;49667;-71
2022/05/24 01:59:24;;;;;;;;;1.75;1.75;;;;;-142.59;100.00;56100.38;5032437;28;49843;-71
2022/05/24 02:01:58;;;;;;;;;1.00;1.00;;;;;-142.59;100.00;56100.38;5019581;28;49805;-71
2022/05/24 02:04:25;;;;;;;;;1.00;1.00;;;;;-142.59;100.00;56100.38;5026149;28;49623;-70
2022/05/24 02:07:19;;;;;;;;;1.00;1.00;;;;;-142.59;100.00;56100.38;5031785;28;49820;-70
2022/05/24 02:09:48;;;;;;;;;0.25;0.25;;;;;-142.59;100.00;56100.38;5029156;28;49771;-70
2022/05/24 02:12:19;;;;;;;;;0.25;0.25;;;;;-142.59;100.00;56100.38;5032001;28;49740;-71
2022/05/24 02:14:51;;;;;;;;;2.00;2.00;;;;;-142.59;100.00;56100.38;5032028;28;49909;-70
2022/05/24 02:17:23;;;;;;;;;1.00;1.00;;;;;-142.59;100.00;56100.38;5031937;28;50027;-70
2022/05/24 02:19:54;;;;;;;;;1.00;1.00;;;;;-142.59;100.00;56100.38;5035469;28;49869;-70
2022/05/24 02:22:22;;;;;;;;;2.00;2.00;;;;;-142.59;100.00;56100.38;5034995;28;49799;-70
2022/05/24 02:25:01;;;;;;;;;1.00;1.00;;;;;-142.59;100.00;56100.38;5035257;28;49601;-70
2022/05/24 02:27:27;;;;;;;;;2.00;1.00;;;;;-142.59;100.00;56100.38;5016147;28;50457;-70
2022/05/24 02:29:54;;;;;;;;;1.00;1.00;;;;;-142.59;100.00;56100.38;5016241;28;49741;-70
2022/05/24 02:32:19;;;;;;;;;2.00;2.00;;;;;-142.59;100.00;56100.38;5015915;28;50511;-70
2022/05/24 02:34:44;;;;;;;;;2.50;2.00;;;;;-142.59;100.00;56100.38;5015978;28;49736;-70
2022/05/24 02:37:10;;;;;;;;;2.00;1.50;;;;;-142.59;100.00;56100.38;5015907;28;49740;-70
2022/05/24 02:41:28;;;;;;;;;2.00;1.00;;;;;-142.59;100.00;56100.38;5016131;28;50288;-70
2022/05/24 02:42:21;;;;;;;;;1.00;1.00;;;;;-142.59;100.00;56100.38;5030124;28;50402;-70
2022/05/24 02:44:46;;;;;;;;;2.00;2.00;;;;;-142.59;100.00;56100.38;5034958;28;49793;-70
2022/05/24 02:47:12;;;;;;;;;1.00;1.00;;;;;-142.59;100.00;56100.38;5034911;28;50264;-69
2022/05/24 02:49:37;;;;;;;;;2.00;1.00;;;;;-142.59;100.00;56100.38;5035320;28;49752;-70
2022/05/24 02:52:03;;;;;;;;;1.25;1.25;;;;;-142.59;100.00;56100.38;5034482;28;50613;-70
2022/05/24 02:54:30;;;;;;;;;1.00;1.00;;;;;-142.59;100.00;56100.38;5035028;28;49649;-70
2022/05/24 02:56:55;;;;;;;;;1.00;1.00;;;;;-142.59;100.00;56100.38;5035142;28;49713;-71
2022/05/24 02:59:21;;;;;;;;;1.75;1.75;;;;;-142.59;100.00;56100.38;5034886;28;49828;-71
2022/05/24 03:01:46;;;;;;;;;2.00;1.25;;;;;-142.59;100.00;56100.38;5034555;28;50544;-70
2022/05/24 03:04:11;;;;;;;;;3.00;1.25;;;;;-142.59;100.00;56100.38;5034664;28;49653;-70
2022/05/24 03:09:36;;;;;;;;;3.00;2.75;;;;;-142.59;100.00;56100.38;5034722;28;49853;-71
2022/05/24 03:14:53;;;;;;;;;2.00;2.00;;;;;-142.59;100.00;56100.38;5034475;28;49804;-70
2022/05/24 03:17:19;;;;;;;;;2.25;2.00;;;;;-142.59;100.00;56100.38;5034606;28;49777;-71
2022/05/24 03:19:45;;;;;;;;;4.00;3.00;;;;;-142.59;100.00;56100.38;5034413;28;49554;-70
2022/05/24 03:22:11;;;;;;;;;2.25;2.25;;;;;-142.59;100.00;56100.38;5016767;28;50839;-70
2022/05/24 03:24:37;;;;;;;;;1.00;1.00;;;;;-142.59;100.00;56100.38;5015188;28;49520;-70
2022/05/24 03:27:07;;;;;;;;;3.00;3.00;;;;;-142.59;100.00;56100.38;5015480;28;49528;-70
2022/05/24 03:29:34;;;;;;;;;1.00;1.00;;;;;-142.59;100.00;56100.38;5014194;28;49843;-70
2022/05/24 03:31:59;;;;;;;;;3.25;2.00;;;;;-142.59;100.00;56100.38;5014747;28;50476;-70
2022/05/24 03:34:24;;;;;;;;;3.00;2.00;;;;;-142.59;100.00;56100.38;5015088;28;49660;-70
2022/05/24 03:36:50;;;;;;;;;3.75;2.25;;;;;-142.59;100.00;56100.38;5014960;28;49711;-70
2022/05/24 03:39:15;;;;;;;;;3.00;3.00;;;;;-142.59;100.00;56100.38;5015300;28;49612;-70
2022/05/24 03:41:43;;;;;;;;;2.00;2.00;;;;;-142.59;100.00;56100.38;5014787;28;59438;-70
2022/05/24 03:44:09;;;;;;;;;2.00;2.00;;;;;-142.59;100.00;56100.38;4997194;28;49850;-70
2022/05/24 03:46:34;;;;;;;;;2.00;2.00;;;;;-142.59;100.00;56100.38;5014804;28;49985;-70
2022/05/24 03:49:00;;;;;;;;;2.25;2.25;;;;;-142.59;100.00;56100.38;5015212;28;49725;-70
2022/05/24 03:51:25;;;;;;;;;3.00;2.00;;;;;-142.59;100.00;56100.38;5014597;28;51170;-70
2022/05/24 03:53:50;;;;;;;;;1.50;1.50;;;;;-142.59;100.00;56100.38;5014840;28;49730;-70
2022/05/24 03:56:16;;;;;;;;;1.00;1.00;;;;;-142.59;100.00;56100.38;5014637;28;52388;-71
2022/05/24 03:58:41;;;;;;;;;3.25;3.25;;;;;-142.59;100.00;56100.38;5015008;28;49715;-71
2022/05/24 04:01:06;;;;;;;;;5.25;3.00;;;;;-142.59;100.00;56100.38;5014451;28;50252;-70
2022/05/24 04:03:32;;;;;;;;;1.75;1.25;;;;;-142.59;100.00;56100.38;5014496;28;49746;-70
2022/05/24 04:05:58;;;;;;;;;2.25;1.25;;;;;-142.59;100.00;56100.38;5014538;28;49917;-70
2022/05/24 04:08:26;;;;;;;;;3.00;1.00;;;;;-142.59;100.00;56100.38;5014788;28;49991;-70
2022/05/24 04:11:08;;;;;;;;;2.00;1.00;;;;;-142.59;100.00;56100.38;4996637;28;52761;-70
2022/05/24 04:13:34;;;;;;;;;2.00;1.00;;;;;-142.59;100.00;56100.38;5028278;28;49813;-70
2022/05/24 04:16:00;;;;;;;;;4.00;2.75;;;;;-142.59;100.00;56100.38;5033515;28;49584;-69
2022/05/24 04:18:26;;;;;;;;;2.50;1.75;;;;;-142.59;100.00;56100.38;5033781;28;49584;-70
2022/05/24 04:20:51;;;;;;;;;2.00;2.00;;;;;-142.59;100.00;56100.38;5033161;28;50312;-70
2022/05/24 04:23:17;;;;;;;;;1.00;1.00;;;;;-142.59;100.00;56100.38;5033979;28;49654;-70
2022/05/24 04:25:43;;;;;;;;;0.50;0.50;;;;;-142.59;100.00;56100.38;5033555;28;49797;-70
2022/05/24 04:28:09;;;;;;;;;1.75;1.50;;;;;-142.59;100.00;56100.38;5033681;28;49894;-70
2022/05/24 04:30:34;;;;;;;;;0.50;0.50;;;;;-142.59;100.00;56100.38;5033297;28;49725;-70
2022/05/24 04:33:00;;;;;;;;;2.00;2.00;;;;;-142.59;100.00;56100.38;5033119;28;49800;-70
2022/05/24 04:35:26;;;;;;;;;1.00;1.00;;;;;-142.59;100.00;56100.38;5033234;28;49772;-70
2022/05/24 04:37:52;;;;;;;;;1.00;1.00;;;;;-142.59;100.00;56100.38;5033555;28;49749;-70
2022/05/24 04:40:18;;;;;;;;;0.00;0.00;;;;;-142.59;100.00;56100.38;5032848;28;50539;-70
2022/05/24 04:42:43;;;;;;;;;1.00;1.00;;;;;-142.59;100.00;56100.38;5033058;28;49725;-70
2022/05/24 04:45:11;;;;;;;;;1.50;0.75;;;;;-142.59;100.00;56100.38;5032960;28;49924;-70
2022/05/24 04:47:37;;;;;;;;;1.00;1.00;;;;;-142.59;100.00;56100.38;5032021;28;49583;-70
2022/05/24 04:50:10;;;;;;;;;2.75;2.00;;;;;-142.59;100.00;56100.38;5032707;28;50693;-70
2022/05/24 04:52:37;;;;;;;;;0.25;0.00;;;;;-142.59;100.00;56100.38;5027839;28;49709;-69
2022/05/24 04:55:05;;;;;;;;;1.00;1.00;;;;;-142.59;100.00;56100.38;5016875;28;49646;-70
2022/05/24 04:57:31;;;;;;;;;0.50;0.50;;;;;-142.59;100.00;56100.38;5016082;28;49787;-70
2022/05/24 04:59:56;;;;;;;;;0.00;0.00;;;;;-142.59;100.00;56100.38;5018498;28;49737;-70
2022/05/24 05:02:22;;;;;;;;;2.00;0.75;;;;;-142.59;100.00;56100.38;5015992;28;49733;-70
2022/05/24 05:04:48;;;;;;;;;1.75;1.75;;;;;-142.59;100.00;56100.38;5023022;28;49622;-70
2022/05/24 05:07:16;;;;;;;;;1.00;0.50;;;;;-142.59;100.00;56100.38;5014049;28;49789;-70
2022/05/24 05:09:43;;;;;;;;;1.00;0.00;;;;;-142.59;100.00;56100.38;5020104;28;51691;-70
2022/05/24 05:12:10;;;;;;;;;1.00;1.00;;;;;-142.59;100.00;56100.38;5013750;28;49611;-70
2022/05/24 05:14:37;;;;;;;;;1.00;1.00;;;;;-142.59;100.00;56100.38;5013688;28;49626;-69
2022/05/24 05:17:03;;;;;;;;;0.00;0.00;;;;;-142.59;100.00;56100.38;5013817;28;49698;-69
2022/05/24 05:19:29;;;;;;;;;0.25;0.25;;;;;-142.59;100.00;56100.38;5013519;28;50388;-70
2022/05/24 05:21:55;;;;;;;;;1.00;1.00;;;;;-142.59;100.00;56100.38;5014316;28;49844;-69
2022/05/24 05:24:20;;;;;;;;;0.00;0.00;;;;;-142.59;100.00;56100.38;5013470;28;49764;-70
2022/05/24 05:26:46;;;;;;;;;0.00;0.00;;;;;-142.59;100.00;56100.38;5013907;28;49866;-70
2022/05/24 05:29:11;;;;;;;;;1.00;1.00;;;;;-142.59;100.00;56100.38;5013286;28;50320;-70
2022/05/24 05:31:36;;;;;;;;;1.50;1.00;;;;;-142.59;100.00;56100.38;5013647;28;49730;-74
2022/05/24 05:34:02;;;;;;;;;1.25;1.25;;;;;-142.59;100.00;56100.38;5011996;28;49847;-68
2022/05/24 05:36:29;;;;;;;;;1.25;1.25;;;;;-142.59;100.00;56100.38;5013314;28;49580;-71
2022/05/24 05:38:55;;;;;;;;;1.00;1.00;;;;;-142.59;100.00;56100.38;5019302;28;49691;-68
2022/05/24 05:41:30;;;;;;;;;1.00;1.00;;;;;-142.59;100.00;56100.38;5020687;28;49753;-71
2022/05/24 05:43:58;;;;;;;;;2.00;2.00;;;;;-142.59;100.00;56100.38;5013360;28;49591;-75
2022/05/24 05:46:23;;;;;;;;;0.75;0.75;;;;;-142.59;100.00;56100.38;5016783;28;49848;-74
2022/05/24 05:48:49;;;;;;;;;0.00;0.00;;;;;-142.59;100.00;56100.38;5016265;28;50346;-79
2022/05/24 05:51:16;;;;;;;;;2.00;1.00;;;;;-142.59;100.00;56100.38;5027871;28;49830;-78
2022/05/24 05:53:42;;;;;;;;;0.00;0.00;;;;;-142.59;100.00;56100.38;5027948;28;49541;-77
2022/05/24 05:56:16;;;;;;;;;2.00;2.00;;;;;-142.59;100.00;56100.38;5021873;28;49880;-74
2022/05/24 05:58:42;;;;;;;;;0.75;0.75;;;;;-142.59;100.00;56100.38;5022584;28;50059;-78
2022/05/24 06:01:16;;;;;;;;;1.50;1.50;;;;;-142.59;100.00;56100.38;5013357;28;49649;-77
2022/05/24 06:03:42;;;;;;;;;0.00;0.00;;;;;-142.59;100.00;56100.38;5022178;28;49754;-76
2022/05/24 06:06:11;;;;;;;;;1.00;1.00;;;;;-142.59;100.00;56100.38;5021196;28;50135;-76
2022/05/24 06:08:36;;;;;;;;;3.00;1.00;;;;;-142.59;100.00;56100.38;5017074;28;49982;-77
2022/05/24 06:11:02;;;;;;;;;1.00;1.00;;;;;-142.59;100.00;56100.38;5020489;28;49678;-75
2022/05/24 06:13:28;;;;;;;;;1.00;1.00;;;;;-142.59;100.00;56100.38;5018851;28;49709;-79
2022/05/24 06:15:55;;;;;;;;;0.75;0.75;;;;;-142.59;100.00;56100.38;5022110;28;49710;-82
2022/05/24 06:18:21;;;;;;;;;1.00;1.00;;;;;-142.59;100.00;56100.38;5016545;28;51472;-70
2022/05/24 06:20:46;;;;;;;;;1.00;1.00;;;;;-142.59;100.00;56100.38;5022046;28;49712;-67
2022/05/24 06:23:11;;;;;;;;;2.00;1.00;;;;;-142.59;100.00;56100.38;5021019;28;50200;-70
2022/05/24 06:25:39;;;;;;;;;1.25;1.25;;;;;-142.59;100.00;56100.38;5023944;28;49966;-67
2022/05/24 06:28:05;;;;;;;;;0.75;0.75;;;;;-142.59;100.00;56100.38;5021264;28;50675;-73
2022/05/24 06:30:31;;;;;;;;;0.25;0.25;;;;;-142.59;100.00;56100.38;5020454;28;49678;-73
2022/05/24 06:32:57;;;;;;;;;1.00;1.00;;;;;-142.59;100.00;56100.38;5021579;28;50052;-73
2022/05/24 06:35:22;;;;;;;;;1.50;1.50;;;;;-142.59;100.00;56100.38;5019016;28;50432;-73
2022/05/24 06:37:48;;;;;;;;;0.50;0.50;;;;;-142.59;100.00;56100.38;5020202;28;49935;-72
2022/05/24 06:40:16;;;;;;;;;2.25;1.25;;;;;-142.59;100.00;56100.38;5021413;28;50236;-73
2022/05/24 06:42:41;;;;;;;;;0.50;0.50;;;;;-142.59;100.00;56100.38;5016029;28;49575;-74
2022/05/24 06:45:08;;;;;;;;;1.00;1.00;;;;;-142.59;100.00;56100.38;5021067;28;49693;-73
2022/05/24 06:47:34;;;;;;;;;1.50;1.00;;;;;-142.59;100.00;56100.38;5025979;28;51160;-73
2022/05/24 06:49:59;;;;;;;;;0.00;0.00;;;;;-142.59;100.00;56100.38;5022492;28;49785;-73
2022/05/24 06:52:25;;;;;;;;;2.25;1.00;;;;;-142.59;100.00;56100.38;5025594;28;49965;-73
2022/05/24 06:54:51;;;;;;;;;1.00;1.00;;;;;-142.59;100.00;56100.38;5020472;28;49918;-72
2022/05/24 06:57:16;;;;;;;;;1.50;1.00;;;;;-142.59;100.00;56100.38;5021124;28;50649;-72
2022/05/24 07:02:26;;;;;;;;;0.25;0.25;;;;;-142.59;100.00;56100.38;5025857;28;49800;-73
2022/05/24 07:04:59;;;;;;;;;3.00;2.00;;;;;-142.59;100.00;56100.38;5024979;28;49744;-73
2022/05/24 07:07:25;;;;;;;;;0.00;0.00;;;;;-142.59;100.00;56100.38;5020958;28;50306;-69
2022/05/24 07:09:52;;;;;;;;;1.00;1.00;;;;;-142.59;100.00;56100.38;5001045;28;50240;-69
2022/05/24 07:12:19;;;;;;;;;1.00;1.00;;;;;-142.59;100.00;56100.38;5021906;28;49691;-69
2022/05/24 07:14:45;;;;;;;;;1.00;1.00;;;;;-142.59;100.00;56100.38;5018009;28;49959;-70
2022/05/24 07:17:10;;;;;;;;;3.50;1.75;;;;;-142.59;100.00;56100.38;5022363;28;50479;-70
2022/05/24 07:19:35;;;;;;;;;2.00;0.00;;;;;-142.59;100.00;56100.38;5022008;28;49634;-70
2022/05/24 07:22:01;;;;;;;;;1.00;1.00;;;;;-142.59;100.00;56100.38;5025599;28;50168;-70
2022/05/24 07:24:27;;;;;;;;;1.75;0.50;;;;;-142.59;100.00;56100.38;5017239;28;49937;-69
2022/05/24 07:26:53;;;;;;;;;2.50;2.00;;;;;-142.59;100.00;56100.38;5017637;28;50811;-69
2022/05/24 07:29:20;;;;;;;;;0.00;0.00;;;;;-142.59;100.00;56100.38;5022765;28;49990;-69
2022/05/24 07:31:45;;;;;;;;;1.00;1.00;;;;;-142.59;100.00;56100.38;5020908;28;49869;-70
2022/05/24 07:34:10;;;;;;;;;1.00;1.00;;;;;-142.59;100.00;56100.38;5018342;28;49675;-69
2022/05/24 07:36:36;;;;;;;;;1.75;0.25;;;;;-142.59;100.00;56100.38;5027065;28;58106;-69
2022/05/24 07:39:01;;;;;;;;;1.00;1.00;;;;;-142.59;100.00;56100.38;5021184;28;49820;-69
2022/05/24 07:46:56;;;;;;;;;0.00;0.00;;;;;-142.59;100.00;56100.38;5014638;28;50212;-69
2022/05/24 07:49:21;;;;;;;;;2.50;1.00;;;;;-142.59;100.00;56100.38;5018492;28;49646;-69
2022/05/24 07:51:47;;;;;;;;;2.00;1.00;;;;;-142.59;100.00;56100.38;5016618;28;49803;-70
2022/05/24 07:54:12;;;;;;;;;1.50;0.25;;;;;-142.59;100.00;56100.38;5024333;28;49701;-70
2022/05/24 07:56:37;;;;;;;;;0.00;0.00;;;;;-142.59;100.00;56100.38;5015394;28;50472;-70
2022/05/24 07:59:03;;;;;;;;;0.75;0.75;;;;;-142.59;100.00;56100.38;5026699;28;50297;-73
2022/05/24 08:01:28;;;;;;;;;0.00;0.00;;;;;-142.59;100.00;56100.38;5029491;28;49677;-73
2022/05/24 08:03:53;;;;;;;;;0.00;0.00;;;;;-142.59;100.00;56100.38;5018839;28;49741;-73
2022/05/24 08:06:19;;;;;;;;;2.00;0.50;;;;;-142.59;100.00;56100.38;5022236;28;49782;-73
2022/05/24 08:08:44;;;;;;;;;0.00;0.00;;;;;-142.59;100.00;56100.38;5014527;28;50067;-73
2022/05/24 08:11:10;;;;;;;;;1.00;0.00;;;;;-142.59;100.00;56100.38;5026787;28;49591;-72
2022/05/24 08:13:36;;;;;;;;;0.00;0.00;;;;;-142.59;100.00;56100.38;5024938;28;50239;-71
2022/05/24 08:16:02;;;;;;;;;0.25;0.25;;;;;-142.59;100.00;56100.38;5018502;28;50543;-69
2022/05/24 08:18:28;;;;;;;;;3.00;1.00;;;;;-142.59;100.00;56100.38;5026450;28;49976;-70
2022/05/24 08:20:54;;;;;;;;;0.00;0.00;;;;;-142.59;100.00;56100.38;5026294;28;49728;-69
2022/05/24 08:23:22;;;;;;;;;0.50;0.50;;;;;-142.59;100.00;56100.38;5024879;28;49489;-69
2022/05/24 08:25:47;;;;;;;;;0.00;0.00;;;;;-142.59;100.00;56100.38;5029489;28;49689;-70
2022/05/24 08:28:12;;;;;;;;;1.00;1.00;;;;;-142.59;100.00;56100.38;5032429;28;49738;-69
2022/05/24 08:30:39;;;;;;;;;0.75;0.75;;;;;-142.59;100.00;56100.38;5015337;28;49870;-70
2022/05/24 08:33:04;;;;;;;;;1.00;1.00;;;;;-142.59;100.00;56100.38;5016927;28;49797;-70
2022/05/24 08:35:33;;;;;;;;;2.00;0.75;;;;;-142.59;100.00;56100.38;5014565;28;49786;-70
2022/05/24 08:37:59;;;;;;;;;2.00;1.00;;;;;-142.59;100.00;56100.38;5013574;28;49737;-69
2022/05/24 08:40:25;;;;;;;;;2.25;2.25;;;;;-142.59;100.00;56100.38;5013941;28;50467;-69
2022/05/24 08:42:50;;;;;;;;;0.00;0.00;;;;;-142.59;100.00;56100.38;5013734;28;49739;-68
2022/05/24 08:48:23;;;;;;;;;0.75;0.75;;;;;-142.59;100.00;56100.38;5026838;28;49876;-68
2022/05/24 08:51:18;;;;;;;;;1.00;1.00;;;;;-142.59;100.00;56100.38;5033004;28;49626;-69
2022/05/24 08:53:46;;;;;;;;;1.00;1.00;;;;;-142.59;100.00;56100.38;4989520;28;49926;-69
2022/05/24 08:56:21;;;;;;;;;0.75;0.75;;;;;-142.59;100.00;56100.38;5020062;28;50634;-68
2022/05/24 08:58:56;;;;;;;;;0.00;0.00;;;;;-142.59;100.00;56100.38;5013511;28;49583;-68
2022/05/24 09:01:32;;;;;;;;;0.25;0.25;;;;;-142.59;100.00;56100.38;5027392;28;49809;-68
2022/05/24 09:04:04;;;;;;;;;1.00;0.00;;;;;-142.59;100.00;56100.38;5023061;28;49748;-69
2022/05/24 09:06:35;;;;;;;;;1.00;1.00;;;;;-142.59;100.00;56100.38;5018511;28;49824;-68
2022/05/24 09:09:25;;;;;;;;;1.00;1.00;;;;;-142.59;100.00;56100.38;5015516;28;49643;-68
2022/05/24 09:12:00;;;;;;;;;2.00;0.00;;;;;-142.59;100.00;56100.38;5011863;28;49810;-68
2022/05/24 09:14:44;;;;;;;;;0.00;0.00;;;;;-142.59;100.00;56100.38;5020002;28;49930;-68
2022/05/24 09:17:18;;;;;;;;;0.00;0.00;;;;;-142.59;100.00;56100.38;5013975;28;49795;-69
2022/05/24 09:19:44;;;;;;;;;0.00;0.00;;;;;-142.59;100.00;56100.38;5016470;28;49728;-69
2022/05/24 09:22:13;;;;;;;;;1.50;1.50;;;;;-142.59;100.00;56100.38;5012952;28;49912;-70
2022/05/24 09:24:56;;;;;;;;;1.00;1.00;;;;;-142.59;100.00;56100.38;5013528;28;49924;-70
2022/05/24 09:27:25;;;;;;;;;0.75;0.75;;;;;-142.59;100.00;56100.38;5013031;28;50405;-71
2022/05/24 09:30:36;;;;;;;;;0.75;0.00;;;;;-142.59;100.00;56100.38;5016685;28;49639;-70
2022/05/24 09:33:29;;;;;;;;;1.00;1.00;;;;;-142.59;100.00;56100.38;5031260;28;49989;-69
2022/05/24 09:35:59;;;;;;;;;1.00;1.00;;;;;-142.59;100.00;56100.38;5016833;28;49769;-70
2022/05/24 09:38:39;;;;;;;;;1.00;1.00;;;;;-142.59;100.00;56100.38;5016186;28;49719;-69
2022/05/24 09:41:14;;;;;;;;;0.00;0.00;;;;;-142.59;100.00;56100.38;5016358;28;49967;-69
2022/05/24 09:43:42;;;;;;;;;0.00;0.00;;;;;-142.59;100.00;56100.38;5024401;28;49793;-70
2022/05/24 09:46:24;;;;;;;;;0.00;0.00;;;;;-142.59;100.00;56100.38;5018825;28;49595;-69
2022/05/24 09:48:59;;;;;;;;;2.00;1.00;;;;;-142.59;100.00;56100.38;5021444;28;51445;-70
2022/05/24 09:51:41;;;;;;;;;0.50;0.50;;;;;-142.59;100.00;56100.38;5016433;28;49756;-70
2022/05/24 09:54:14;;;;;;;;;0.25;0.25;;;;;-142.59;100.00;56100.38;5015361;28;49872;-70
2022/05/24 09:56:40;;;;;;;;;0.00;0.00;;;;;-142.59;100.00;56100.38;5016860;28;49848;-71
2022/05/24 09:59:18;;;;;;;;;0.00;0.00;;;;;-142.59;100.00;56100.38;5022511;28;49911;-70
2022/05/24 10:01:44;;;;;;;;;0.00;0.00;;;;;-142.59;100.00;56100.38;5022280;28;49819;-70
2022/05/24 10:04:29;;;;;;;;;1.00;1.00;;;;;-142.59;100.00;56100.38;5014242;28;49701;-70
2022/05/24 10:07:02;;;;;;;;;0.50;0.00;;;;;-142.59;100.00;56100.38;5013059;28;49912;-70
2022/05/24 10:09:52;;;;;;;;;1.50;1.50;;;;;-142.59;100.00;56100.38;5014988;28;51490;-70
2022/05/24 10:12:17;;;;;;;;;2.00;1.00;;;;;-142.59;100.00;56100.38;5031119;28;50355;-70
2022/05/24 10:15:12;;;;;;;;;0.00;0.00;;;;;-142.59;100.00;56100.38;5035376;28;49602;-70
2022/05/24 10:18:14;;;;;;;;;1.00;1.00;;;;;-142.59;100.00;56100.38;5035556;28;49679;-70
2022/05/24 10:20:55;;;;;;;;;0.00;0.00;;;;;-142.59;100.00;56100.38;5035029;28;50437;-70
2022/05/24 10:23:42;;;;;;;;;1.00;0.00;;;;;-142.59;100.00;56100.38;5035048;28;49718;-71
2022/05/24 10:26:16;;;;;;;;;0.00;0.00;;;;;-142.59;100.00;56100.38;5035179;28;49662;-71
2022/05/24 10:29:00;;;;;;;;;2.00;1.00;;;;;-142.59;100.00;56100.38;5035437;28;49713;-71
2022/05/24 10:31:53;;;;;;;;;0.00;0.00;;;;;-142.59;100.00;56100.38;5035077;28;49602;-71
2022/05/24 10:40:12;;;;;;;;;1.00;1.00;;;;;-142.59;100.00;56100.38;5015714;28;49862;-70
2022/05/24 10:43:08;;;;;;;;;0.00;0.00;;;;;-142.59;100.00;56100.38;5015716;28;50475;-71
2022/05/24 10:46:05;;;;;;;;;0.50;0.00;;;;;-142.59;100.00;56100.38;5033008;28;54916;-70
2022/05/24 10:48:33;;;;;;;;;0.00;0.00;;;;;-142.59;100.00;56100.38;5015960;28;49973;-70
2022/05/24 10:51:04;;;;;;;;;1.00;1.00;;;;;-142.59;100.00;56100.38;5015925;28;50154;-71
2022/05/24 10:53:39;;;;;;;;;0.00;0.00;;;;;-142.59;100.00;56100.38;5015129;28;51069;-70
2022/05/24 10:56:39;;;;;;;;;0.00;0.00;;;;;-142.59;100.00;56100.38;5016025;28;49760;-72
2022/05/24 10:59:28;;;;;;;;;0.00;0.00;;;;;-142.59;100.00;56100.38;5018140;28;49825;-69
2022/05/24 11:02:10;;;;;;;;;1.00;1.00;;;;;-142.59;100.00;56100.38;5016755;28;49757;-69
2022/05/24 11:05:04;;;;;;;;;1.00;0.00;;;;;-142.59;100.00;56100.38;5027933;28;49863;-72
2022/05/24 11:07:33;;;;;;;;;0.50;0.50;;;;;-142.59;100.00;56100.38;5015778;28;49738;-70
2022/05/24 11:10:25;;;;;;;;;0.00;0.00;;;;;-142.59;100.00;56100.38;5033715;28;49733;-71
2022/05/24 11:12:56;;;;;;;;;0.00;0.00;;;;;-142.59;100.00;56100.38;5034172;28;49788;-69
2022/05/24 11:15:33;;;;;;;;;1.00;1.00;;;;;-142.59;100.00;56100.38;5033449;28;50431;-71
2022/05/24 11:18:02;;;;;;;;;0.00;0.00;;;;;-142.59;100.00;56100.38;5033730;28;49728;-70
2022/05/24 11:20:35;;;;;;;;;1.00;1.00;;;;;-142.59;100.00;56100.38;5033652;28;49780;-70
2022/05/24 11:23:21;;;;;;;;;0.25;0.25;;;;;-142.59;100.00;56100.38;5034102;28;49798;-70
2022/05/24 11:25:53;;;;;;;;;0.00;0.00;;;;;-142.59;100.00;56100.38;5033393;28;51670;-70
2022/05/24 11:28:32;;;;;;;;;0.25;0.25;;;;;-142.59;100.00;56100.38;5033933;28;49529;-71
2022/05/24 11:31:17;;;;;;;;;1.00;0.75;;;;;-142.59;100.00;56100.38;5033682;28;50251;-69
2022/05/24 11:33:44;;;;;;;;;1.00;0.00;;;;;-142.59;100.00;56100.38;5033752;28;49916;-71
2022/05/24 11:36:36;;;;;;;;;0.00;0.00;;;;;-142.59;100.00;56100.38;5033265;28;50679;-71
2022/05/24 11:39:10;;;;;;;;;0.75;0.75;;;;;-142.59;100.00;56100.38;5033599;28;49736;-70
2022/05/24 11:41:36;;;;;;;;;0.00;0.00;;;;;-142.59;100.00;56100.38;5023533;28;49953;-71
2022/05/24 11:44:18;;;;;;;;;0.00;0.00;;;;;-142.59;100.00;56100.38;5016736;28;49998;-71
2022/05/24 11:46:46;;;;;;;;;0.00;0.00;;;;;-142.59;100.00;56100.38;5016990;28;50517;-71
2022/05/24 11:49:21;;;;;;;;;0.00;0.00;;;;;-142.59;100.00;56100.38;5014707;28;49509;-72